createdAt,value
2019-02-14T00:00:05.042Z,12.50
2019-02-14T00:00:41.451Z,12.77
2019-02-14T00:01:15.954Z,10.00
2019-02-14T00:01:50.324Z,13.33
2019-02-14T00:02:25.229Z,12.57
2019-02-14T00:02:59.916Z,9.57
2019-02-14T00:03:34.262Z,10.83
2019-02-14T00:04:09.174Z,9.17
2019-02-14T00:04:43.547Z,11.93
2019-02-14T00:05:17.895Z,12.10
2019-02-14T00:05:52.256Z,14.37
2019-02-14T00:06:26.842Z,10.80
2019-02-14T00:07:01.200Z,12.57
2019-02-14T00:07:35.805Z,10.90
2019-02-14T00:08:10.475Z,13.20
2019-02-14T00:08:44.881Z,11.37
2019-02-14T00:09:19.232Z,13.87
2019-02-14T00:09:53.561Z,9.37
2019-02-14T00:10:28.155Z,14.90
2019-02-14T00:11:02.820Z,10.60
2019-02-14T00:11:37.154Z,12.93
2019-02-14T00:12:11.626Z,13.53
2019-02-14T00:12:46.330Z,11.60
2019-02-14T00:13:20.987Z,13.90
2019-02-14T00:13:55.333Z,14.27
2019-02-14T00:14:29.681Z,15.83
2019-02-14T00:15:04.282Z,12.03
2019-02-14T00:15:38.871Z,10.13
2019-02-14T00:16:13.582Z,9.17
2019-02-14T00:16:47.941Z,13.80
2019-02-14T00:17:22.294Z,12.27
2019-02-14T00:17:56.651Z,12.67
2019-02-14T00:18:31.001Z,11.87
2019-02-14T00:19:05.635Z,10.90
2019-02-14T00:19:40.227Z,14.13
2019-02-14T00:20:14.839Z,16.03
2019-02-14T00:20:49.174Z,11.83
2019-02-14T00:21:23.799Z,14.17
2019-02-14T00:21:58.149Z,11.33
2019-02-14T00:22:32.514Z,9.83
2019-02-14T00:23:06.890Z,13.03
2019-02-14T00:23:41.252Z,14.17
2019-02-14T00:24:15.748Z,12.83
2019-02-14T00:24:50.410Z,13.23
2019-02-14T00:25:24.751Z,11.23
2019-02-14T00:25:59.126Z,9.90
2019-02-14T00:26:33.749Z,14.03
2019-02-14T00:27:08.373Z,11.17
2019-02-14T00:27:42.742Z,10.67
2019-02-14T00:28:17.164Z,9.97
2019-02-14T00:28:51.528Z,11.77
2019-02-14T00:29:25.891Z,12.87
2019-02-14T00:30:00.325Z,11.20
2019-02-14T00:30:34.923Z,10.73
2019-02-14T00:31:09.556Z,14.60
2019-02-14T00:31:44.281Z,9.00
2019-02-14T00:32:18.889Z,13.77
2019-02-14T00:32:53.244Z,13.80
2019-02-14T00:33:27.694Z,10.77
2019-02-14T00:34:02.171Z,12.30
2019-02-14T00:34:36.781Z,12.93
2019-02-14T00:35:11.163Z,15.33
2019-02-14T00:35:45.534Z,14.70
2019-02-14T00:36:20.129Z,11.77
2019-02-14T00:36:54.578Z,11.70
2019-02-14T00:37:28.929Z,12.03
2019-02-14T00:38:03.273Z,15.33
2019-02-14T00:38:37.943Z,10.73
2019-02-14T00:39:12.305Z,12.73
2019-02-14T00:39:46.654Z,11.60
2019-02-14T00:40:21.362Z,13.00
2019-02-14T00:40:55.955Z,10.83
2019-02-14T00:41:31.146Z,11.47
2019-02-14T00:42:05.763Z,11.40
2019-02-14T00:42:40.384Z,12.83
2019-02-14T00:43:14.799Z,11.80
2019-02-14T00:43:49.159Z,12.43
2019-02-14T00:44:23.506Z,10.00
2019-02-14T00:44:57.872Z,9.97
2019-02-14T00:45:32.491Z,13.40
2019-02-14T00:46:06.844Z,11.03
2019-02-14T00:46:41.460Z,15.27
2019-02-14T00:47:15.838Z,13.23
2019-02-14T00:47:50.446Z,14.07
2019-02-14T00:48:25.087Z,11.60
2019-02-14T00:48:59.437Z,11.20
2019-02-14T00:49:33.783Z,12.87
2019-02-14T00:50:08.224Z,15.13
2019-02-14T00:50:42.833Z,16.00
2019-02-14T00:51:17.214Z,11.87
2019-02-14T00:51:51.567Z,12.40
2019-02-14T00:52:25.917Z,12.33
2019-02-14T00:53:00.824Z,12.33
2019-02-14T00:53:35.183Z,11.40
2019-02-14T00:54:09.532Z,11.97
2019-02-14T00:54:43.884Z,12.20
2019-02-14T00:55:18.265Z,12.87
2019-02-14T00:55:52.622Z,10.90
2019-02-14T00:56:26.988Z,11.17
2019-02-14T00:57:01.331Z,10.40
2019-02-14T00:57:35.760Z,11.73
2019-02-14T00:58:10.110Z,12.83
2019-02-14T00:58:44.742Z,12.80
2019-02-14T00:59:19.357Z,14.43
2019-02-14T00:59:53.959Z,13.47
2019-02-14T01:00:28.578Z,11.97
2019-02-14T01:01:02.920Z,12.50
2019-02-14T01:01:37.258Z,10.90
2019-02-14T01:02:11.609Z,11.83
2019-02-14T01:02:45.980Z,12.00
2019-02-14T01:03:20.341Z,15.47
2019-02-14T01:03:54.978Z,10.77
2019-02-14T01:04:29.571Z,10.63
2019-02-14T01:05:03.952Z,13.50
2019-02-14T01:05:38.330Z,10.50
2019-02-14T01:06:12.947Z,12.03
2019-02-14T01:06:47.290Z,11.77
2019-02-14T01:07:21.639Z,14.07
2019-02-14T01:07:56.253Z,11.30
2019-02-14T01:08:30.598Z,12.70
2019-02-14T01:09:05.990Z,10.97
2019-02-14T01:09:40.328Z,11.70
2019-02-14T01:10:14.943Z,12.87
2019-02-14T01:10:49.422Z,9.07
2019-02-14T01:11:23.771Z,14.83
2019-02-14T01:11:58.105Z,12.60
2019-02-14T01:12:32.454Z,15.60
2019-02-14T01:13:06.832Z,12.30
2019-02-14T01:13:41.435Z,9.70
2019-02-14T01:14:16.086Z,13.10
2019-02-14T01:14:50.525Z,9.50
2019-02-14T01:15:25.605Z,12.77
2019-02-14T01:16:00.016Z,16.13
2019-02-14T01:16:34.341Z,13.47
2019-02-14T01:17:08.683Z,11.40
2019-02-14T01:17:43.075Z,11.20
2019-02-14T01:18:17.775Z,15.47
2019-02-14T01:18:52.488Z,12.93
2019-02-14T01:19:26.864Z,13.67
2019-02-14T01:20:01.494Z,16.90
2019-02-14T01:20:36.182Z,12.73
2019-02-14T01:21:10.537Z,14.63
2019-02-14T01:21:44.907Z,14.20
2019-02-14T01:22:19.320Z,12.00
2019-02-14T01:22:53.686Z,12.63
2019-02-14T01:23:28.197Z,12.43
2019-02-14T01:24:02.570Z,14.93
2019-02-14T01:24:37.446Z,13.73
2019-02-14T01:25:11.840Z,11.67
2019-02-14T01:25:46.516Z,13.77
2019-02-14T01:26:20.906Z,13.97
2019-02-14T01:26:55.271Z,14.03
2019-02-14T01:27:29.654Z,16.13
2019-02-14T01:28:04.014Z,10.43
2019-02-14T01:28:38.364Z,10.90
2019-02-14T01:29:13.258Z,13.37
2019-02-14T01:29:47.928Z,17.60
2019-02-14T01:30:22.610Z,13.90
2019-02-14T01:30:57.299Z,14.57
2019-02-14T01:31:31.650Z,10.00
2019-02-14T01:32:06.260Z,14.50
2019-02-14T01:32:40.619Z,12.27
2019-02-14T01:33:14.997Z,13.30
2019-02-14T01:33:49.367Z,11.03
2019-02-14T01:34:24.318Z,10.97
2019-02-14T01:34:58.656Z,11.50
2019-02-14T01:35:32.999Z,14.87
2019-02-14T01:36:07.623Z,9.87
2019-02-14T01:36:42.266Z,13.80
2019-02-14T01:37:16.710Z,11.20
2019-02-14T01:37:51.309Z,12.47
2019-02-14T01:38:25.689Z,12.07
2019-02-14T01:39:00.024Z,13.07
2019-02-14T01:39:34.374Z,14.47
2019-02-14T01:40:08.873Z,17.13
2019-02-14T01:40:43.238Z,17.40
2019-02-14T01:41:17.724Z,18.27
2019-02-14T01:41:52.053Z,16.17
2019-02-14T01:42:26.505Z,21.93
2019-02-14T01:43:00.845Z,22.20
2019-02-14T01:43:35.450Z,31.57
2019-02-14T01:44:09.897Z,26.10
2019-02-14T01:44:44.552Z,19.93
2019-02-14T01:45:18.933Z,23.20
2019-02-14T01:45:53.420Z,19.17
2019-02-14T01:46:27.775Z,19.33
2019-02-14T01:47:02.124Z,17.43
2019-02-14T01:47:36.478Z,19.63
2019-02-14T01:48:11.456Z,15.63
2019-02-14T01:48:46.209Z,20.47
2019-02-14T01:49:20.578Z,22.07
2019-02-14T01:49:54.925Z,18.60
2019-02-14T01:50:31.784Z,19.30
2019-02-14T01:51:06.211Z,20.40
2019-02-14T01:51:40.822Z,15.43
2019-02-14T01:52:15.491Z,15.77
2019-02-14T01:52:49.830Z,15.93
2019-02-14T01:53:24.422Z,15.00
2019-02-14T01:53:58.772Z,12.33
2019-02-14T01:54:33.108Z,14.33
2019-02-14T01:55:07.742Z,14.57
2019-02-14T01:55:42.126Z,14.03
2019-02-14T01:56:16.481Z,13.90
2019-02-14T01:56:51.098Z,15.37
2019-02-14T01:57:25.688Z,15.00
2019-02-14T01:58:00.035Z,15.63
2019-02-14T01:58:34.714Z,16.40
2019-02-14T01:59:09.072Z,11.33
2019-02-14T01:59:43.472Z,15.70
2019-02-14T02:00:18.376Z,15.30
2019-02-14T02:00:52.997Z,14.57
2019-02-14T02:01:27.352Z,18.00
2019-02-14T02:02:01.678Z,15.67
2019-02-14T02:02:36.262Z,15.87
2019-02-14T02:03:10.859Z,13.50
2019-02-14T02:03:45.452Z,19.27
2019-02-14T02:04:19.810Z,16.70
2019-02-14T02:04:54.391Z,15.33
2019-02-14T02:05:28.727Z,14.67
2019-02-14T02:06:03.153Z,16.27
2019-02-14T02:06:37.480Z,11.73
2019-02-14T02:07:11.924Z,14.83
2019-02-14T02:07:46.591Z,17.00
2019-02-14T02:08:21.333Z,12.17
2019-02-14T02:08:56.034Z,12.93
2019-02-14T02:09:30.637Z,12.00
2019-02-14T02:10:05.384Z,12.00
2019-02-14T02:10:40.006Z,16.07
2019-02-14T02:11:14.360Z,11.33
2019-02-14T02:11:48.936Z,10.10
2019-02-14T02:12:23.537Z,13.53
2019-02-14T02:12:57.861Z,10.93
2019-02-14T02:13:32.813Z,11.53
2019-02-14T02:14:07.134Z,11.73
2019-02-14T02:14:42.001Z,14.33
2019-02-14T02:15:16.343Z,11.13
2019-02-14T02:15:50.661Z,12.67
2019-02-14T02:16:25.127Z,12.63
2019-02-14T02:16:59.745Z,10.10
2019-02-14T02:17:34.068Z,10.53
2019-02-14T02:18:08.640Z,11.57
2019-02-14T02:18:43.564Z,9.23
2019-02-14T02:19:18.235Z,10.43
2019-02-14T02:19:52.569Z,10.47
2019-02-14T02:20:33.275Z,10.63
2019-02-14T02:21:03.404Z,10.00
2019-02-14T02:21:37.738Z,8.40
2019-02-14T02:22:12.345Z,11.70
2019-02-14T02:22:46.647Z,10.43
2019-02-14T02:23:20.957Z,14.33
2019-02-14T02:23:55.532Z,11.47
2019-02-14T02:24:30.123Z,13.30
2019-02-14T02:25:04.826Z,11.47
2019-02-14T02:25:39.153Z,14.17
2019-02-14T02:26:13.744Z,16.80
2019-02-14T02:26:48.369Z,10.47
2019-02-14T02:27:22.950Z,12.80
2019-02-14T02:27:57.542Z,12.40
2019-02-14T02:28:31.965Z,9.50
2019-02-14T02:29:06.556Z,12.97
2019-02-14T02:29:40.921Z,10.90
2019-02-14T02:30:15.535Z,12.63
2019-02-14T02:30:49.867Z,11.77
2019-02-14T02:31:24.186Z,12.03
2019-02-14T02:31:58.834Z,15.73
2019-02-14T02:32:33.157Z,12.67
2019-02-14T02:33:07.466Z,13.63
2019-02-14T02:33:42.157Z,14.63
2019-02-14T02:34:16.836Z,13.90
2019-02-14T02:34:51.197Z,11.47
2019-02-14T02:35:25.772Z,11.97
2019-02-14T02:36:00.907Z,13.00
2019-02-14T02:36:35.188Z,11.80
2019-02-14T02:37:09.640Z,15.87
2019-02-14T02:37:44.093Z,14.53
2019-02-14T02:38:18.424Z,10.67
2019-02-14T02:38:52.757Z,13.87
2019-02-14T02:39:27.143Z,14.07
2019-02-14T02:40:01.752Z,18.67
2019-02-14T02:40:36.067Z,12.40
2019-02-14T02:41:10.978Z,15.43
2019-02-14T02:41:45.336Z,12.70
2019-02-14T02:42:19.646Z,16.83
2019-02-14T02:42:53.978Z,13.37
2019-02-14T02:43:28.611Z,15.07
2019-02-14T02:44:03.187Z,14.73
2019-02-14T02:44:37.540Z,17.93
2019-02-14T02:45:12.661Z,13.53
2019-02-14T02:45:47.299Z,16.20
2019-02-14T02:46:22.440Z,12.50
2019-02-14T02:46:56.772Z,15.47
2019-02-14T02:47:31.260Z,14.13
2019-02-14T02:48:05.581Z,13.93
2019-02-14T02:48:40.141Z,12.83
2019-02-14T02:49:14.784Z,11.83
2019-02-14T02:49:49.399Z,10.90
2019-02-14T02:50:24.097Z,10.27
2019-02-14T02:50:58.715Z,12.00
2019-02-14T02:51:33.171Z,14.27
2019-02-14T02:52:07.594Z,11.83
2019-02-14T02:52:41.945Z,16.37
2019-02-14T02:53:16.537Z,11.07
2019-02-14T02:53:50.869Z,11.33
2019-02-14T02:54:25.214Z,12.10
2019-02-14T02:54:59.824Z,15.17
2019-02-14T02:55:34.192Z,15.07
2019-02-14T02:56:08.522Z,13.63
2019-02-14T02:56:43.117Z,14.17
2019-02-14T02:57:17.741Z,15.73
2019-02-14T02:57:52.092Z,15.20
2019-02-14T02:58:26.457Z,14.67
2019-02-14T02:59:01.016Z,14.20
2019-02-14T02:59:35.356Z,10.73
2019-02-14T03:00:13.137Z,10.10
2019-02-14T03:00:47.479Z,13.80
2019-02-14T03:01:21.776Z,13.60
2019-02-14T03:01:56.102Z,18.60
2019-02-14T03:02:30.456Z,13.60
2019-02-14T03:03:04.790Z,14.97
2019-02-14T03:03:39.388Z,11.83
2019-02-14T03:04:14.009Z,12.00
2019-02-14T03:04:48.340Z,10.53
2019-02-14T03:05:22.682Z,14.07
2019-02-14T03:05:57.073Z,11.20
2019-02-14T03:06:31.400Z,11.27
2019-02-14T03:07:05.840Z,13.40
2019-02-14T03:07:40.727Z,15.47
2019-02-14T03:08:15.314Z,9.20
2019-02-14T03:08:49.640Z,10.73
2019-02-14T03:09:24.056Z,9.70
2019-02-14T03:09:58.414Z,11.60
2019-02-14T03:10:32.723Z,17.80
2019-02-14T03:11:07.340Z,14.47
2019-02-14T03:11:41.648Z,8.77
2019-02-14T03:12:16.226Z,11.10
2019-02-14T03:12:50.548Z,8.70
2019-02-14T03:13:24.882Z,11.43
2019-02-14T03:13:59.201Z,13.73
2019-02-14T03:14:33.826Z,11.53
2019-02-14T03:15:09.083Z,11.13
2019-02-14T03:15:43.511Z,10.00
2019-02-14T03:16:17.884Z,10.80
2019-02-14T03:16:52.207Z,12.33
2019-02-14T03:17:26.781Z,8.43
2019-02-14T03:18:01.097Z,8.73
2019-02-14T03:18:35.405Z,10.80
2019-02-14T03:19:09.710Z,11.07
2019-02-14T03:19:44.053Z,12.00
2019-02-14T03:20:18.952Z,9.57
2019-02-14T03:20:53.530Z,10.87
2019-02-14T03:21:27.848Z,10.40
2019-02-14T03:22:02.155Z,7.87
2019-02-14T03:22:36.456Z,8.73
2019-02-14T03:23:11.037Z,8.67
2019-02-14T03:23:45.366Z,12.57
2019-02-14T03:24:19.956Z,9.93
2019-02-14T03:24:54.288Z,10.20
2019-02-14T03:25:28.914Z,11.87
2019-02-14T03:26:03.483Z,14.00
2019-02-14T03:26:38.096Z,13.23
2019-02-14T03:27:12.709Z,10.20
2019-02-14T03:27:47.050Z,10.33
2019-02-14T03:28:21.645Z,11.10
2019-02-14T03:28:55.969Z,11.80
2019-02-14T03:29:30.239Z,10.67
2019-02-14T03:30:05.006Z,9.07
2019-02-14T03:30:39.327Z,10.87
2019-02-14T03:31:13.664Z,9.80
2019-02-14T03:31:47.998Z,11.80
2019-02-14T03:32:22.322Z,9.43
2019-02-14T03:32:56.650Z,9.33
2019-02-14T03:33:31.238Z,12.27
2019-02-14T03:34:05.859Z,11.33
2019-02-14T03:34:40.204Z,11.10
2019-02-14T03:35:14.570Z,11.47
2019-02-14T03:35:49.225Z,12.17
2019-02-14T03:36:23.831Z,13.30
2019-02-14T03:36:58.446Z,11.77
2019-02-14T03:37:33.407Z,12.93
2019-02-14T03:38:08.350Z,10.30
2019-02-14T03:38:42.786Z,10.90
2019-02-14T03:39:17.400Z,10.67
2019-02-14T03:39:51.737Z,8.53
2019-02-14T03:40:26.608Z,8.77
2019-02-14T03:41:01.095Z,11.27
2019-02-14T03:41:35.544Z,13.47
2019-02-14T03:42:10.154Z,8.63
2019-02-14T03:42:44.485Z,7.33
2019-02-14T03:43:18.843Z,11.27
2019-02-14T03:43:53.418Z,10.30
2019-02-14T03:44:27.744Z,12.03
2019-02-14T03:45:02.087Z,7.90
2019-02-14T03:45:36.698Z,9.73
2019-02-14T03:46:11.041Z,8.90
2019-02-14T03:46:45.646Z,10.60
2019-02-14T03:47:20.007Z,12.50
2019-02-14T03:47:54.444Z,12.73
2019-02-14T03:48:28.775Z,11.60
2019-02-14T03:49:03.113Z,10.30
2019-02-14T03:49:37.439Z,8.27
2019-02-14T03:50:11.785Z,11.67
2019-02-14T03:50:46.436Z,11.57
2019-02-14T03:51:20.775Z,10.33
2019-02-14T03:51:55.113Z,11.47
2019-02-14T03:52:29.451Z,9.87
2019-02-14T03:53:03.773Z,12.83
2019-02-14T03:53:38.420Z,9.93
2019-02-14T03:54:12.984Z,10.23
2019-02-14T03:54:47.564Z,10.03
2019-02-14T03:55:22.497Z,9.67
2019-02-14T03:55:56.836Z,11.87
2019-02-14T03:56:31.503Z,10.67
2019-02-14T03:57:06.424Z,9.00
2019-02-14T03:57:40.774Z,11.53
2019-02-14T03:58:15.235Z,9.70
2019-02-14T03:58:49.671Z,11.33
2019-02-14T03:59:23.995Z,9.90
2019-02-14T03:59:58.337Z,10.57
2019-02-14T04:00:33.013Z,10.60
2019-02-14T04:01:07.353Z,12.97
2019-02-14T04:01:41.729Z,11.10
2019-02-14T04:02:16.451Z,11.73
2019-02-14T04:02:51.035Z,9.33
2019-02-14T04:03:25.367Z,13.13
2019-02-14T04:03:59.693Z,8.83
2019-02-14T04:04:34.283Z,11.37
2019-02-14T04:05:08.788Z,11.47
2019-02-14T04:05:46.191Z,11.23
2019-02-14T04:06:27.137Z,8.47
2019-02-14T04:06:56.813Z,9.97
2019-02-14T04:07:31.166Z,10.60
2019-02-14T04:08:05.485Z,8.87
2019-02-14T04:08:40.073Z,9.70
2019-02-14T04:09:14.683Z,11.97
2019-02-14T04:09:49.042Z,11.57
2019-02-14T04:10:23.637Z,8.47
2019-02-14T04:10:57.992Z,11.40
2019-02-14T04:11:32.331Z,11.53
2019-02-14T04:12:06.657Z,11.03
2019-02-14T04:12:41.125Z,12.87
2019-02-14T04:13:15.762Z,14.50
2019-02-14T04:13:50.366Z,10.17
2019-02-14T04:14:24.978Z,10.20
2019-02-14T04:14:59.561Z,14.37
2019-02-14T04:15:33.877Z,8.37
2019-02-14T04:16:08.498Z,10.43
2019-02-14T04:16:43.405Z,12.40
2019-02-14T04:17:17.739Z,10.07
2019-02-14T04:17:52.305Z,8.83
2019-02-14T04:18:26.682Z,8.67
2019-02-14T04:19:01.058Z,9.73
2019-02-14T04:19:35.673Z,11.53
2019-02-14T04:20:10.100Z,9.13
2019-02-14T04:20:44.432Z,9.03
2019-02-14T04:21:19.019Z,8.80
2019-02-14T04:21:53.344Z,12.33
2019-02-14T04:22:27.673Z,9.83
2019-02-14T04:23:01.997Z,10.77
2019-02-14T04:23:36.348Z,11.03
2019-02-14T04:24:10.929Z,11.43
2019-02-14T04:24:45.996Z,12.53
2019-02-14T04:25:20.644Z,10.83
2019-02-14T04:25:55.243Z,11.63
2019-02-14T04:26:29.563Z,12.87
2019-02-14T04:27:03.950Z,10.17
2019-02-14T04:27:38.578Z,8.53
2019-02-14T04:28:12.908Z,11.10
2019-02-14T04:28:47.249Z,9.50
2019-02-14T04:29:21.828Z,9.30
2019-02-14T04:29:56.428Z,7.67
2019-02-14T04:30:30.743Z,10.47
2019-02-14T04:31:05.104Z,10.63
2019-02-14T04:31:39.431Z,13.03
2019-02-14T04:32:14.023Z,12.27
2019-02-14T04:32:48.620Z,8.37
2019-02-14T04:33:22.949Z,9.20
2019-02-14T04:33:57.275Z,12.33
2019-02-14T04:34:31.893Z,12.57
2019-02-14T04:35:06.360Z,9.50
2019-02-14T04:35:40.756Z,8.33
2019-02-14T04:36:15.162Z,9.80
2019-02-14T04:36:49.466Z,9.73
2019-02-14T04:37:24.071Z,12.33
2019-02-14T04:37:58.405Z,10.43
2019-02-14T04:38:32.736Z,9.07
2019-02-14T04:39:08.166Z,12.77
2019-02-14T04:39:42.762Z,11.73
2019-02-14T04:40:17.350Z,11.80
2019-02-14T04:40:51.971Z,11.37
2019-02-14T04:41:26.887Z,11.93
2019-02-14T04:42:01.462Z,13.17
2019-02-14T04:42:35.820Z,10.47
2019-02-14T04:43:10.150Z,10.50
2019-02-14T04:43:44.778Z,13.00
2019-02-14T04:44:19.778Z,12.00
2019-02-14T04:44:54.371Z,11.50
2019-02-14T04:45:28.702Z,11.17
2019-02-14T04:46:03.328Z,12.73
2019-02-14T04:46:37.740Z,10.70
2019-02-14T04:47:12.317Z,10.70
2019-02-14T04:47:46.647Z,12.07
2019-02-14T04:48:21.254Z,11.50
2019-02-14T04:48:55.835Z,12.30
2019-02-14T04:49:30.419Z,13.10
2019-02-14T04:50:05.391Z,16.87
2019-02-14T04:50:39.740Z,14.53
2019-02-14T04:51:14.100Z,10.67
2019-02-14T04:51:48.432Z,11.23
2019-02-14T04:52:22.762Z,12.70
2019-02-14T04:52:57.342Z,11.13
2019-02-14T04:53:31.931Z,10.77
2019-02-14T04:54:06.510Z,11.07
2019-02-14T04:54:41.172Z,11.07
2019-02-14T04:55:15.520Z,10.53
2019-02-14T04:55:49.853Z,11.47
2019-02-14T04:56:24.529Z,11.37
2019-02-14T04:56:58.864Z,14.30
2019-02-14T04:57:33.729Z,13.83
2019-02-14T04:58:08.143Z,12.50
2019-02-14T04:58:42.780Z,12.33
2019-02-14T04:59:17.940Z,10.53
2019-02-14T04:59:52.270Z,13.87
2019-02-14T05:00:26.599Z,14.17
2019-02-14T05:01:00.931Z,10.80
2019-02-14T05:01:35.311Z,13.83
2019-02-14T05:02:09.901Z,10.93
2019-02-14T05:02:44.526Z,8.70
2019-02-14T05:03:19.172Z,14.47
2019-02-14T05:03:53.591Z,10.50
2019-02-14T05:04:27.919Z,14.27
2019-02-14T05:05:02.261Z,12.07
2019-02-14T05:05:36.594Z,15.17
2019-02-14T05:06:10.952Z,11.63
2019-02-14T05:06:45.332Z,11.90
2019-02-14T05:07:19.681Z,11.90
2019-02-14T05:07:54.565Z,16.60
2019-02-14T05:08:29.209Z,10.07
2019-02-14T05:09:04.469Z,14.43
2019-02-14T05:09:39.113Z,10.70
2019-02-14T05:10:14.099Z,13.33
2019-02-14T05:10:48.453Z,9.07
2019-02-14T05:11:23.136Z,9.87
2019-02-14T05:11:57.778Z,13.37
2019-02-14T05:12:32.438Z,13.47
2019-02-14T05:13:06.769Z,11.90
2019-02-14T05:13:41.642Z,12.47
2019-02-14T05:14:15.996Z,13.33
2019-02-14T05:14:50.326Z,13.80
2019-02-14T05:15:24.658Z,10.33
2019-02-14T05:15:58.989Z,12.17
2019-02-14T05:16:33.367Z,13.50
2019-02-14T05:17:08.270Z,14.03
2019-02-14T05:17:42.925Z,12.30
2019-02-14T05:18:17.821Z,11.83
2019-02-14T05:18:52.157Z,13.43
2019-02-14T05:19:26.487Z,12.97
2019-02-14T05:20:01.347Z,18.57
2019-02-14T05:20:35.682Z,18.10
2019-02-14T05:21:10.304Z,18.80
2019-02-14T05:21:44.915Z,16.17
2019-02-14T05:22:19.805Z,15.67
2019-02-14T05:22:54.141Z,13.67
2019-02-14T05:23:28.774Z,16.47
2019-02-14T05:24:03.105Z,17.00
2019-02-14T05:24:37.443Z,15.00
2019-02-14T05:25:12.085Z,12.30
2019-02-14T05:25:46.759Z,17.73
2019-02-14T05:26:22.659Z,13.97
2019-02-14T05:26:57.282Z,15.37
2019-02-14T05:27:31.626Z,14.47
2019-02-14T05:28:05.964Z,17.33
2019-02-14T05:28:40.305Z,11.50
2019-02-14T05:29:14.634Z,12.30
2019-02-14T05:29:50.605Z,19.10
2019-02-14T05:30:25.199Z,17.37
2019-02-14T05:30:59.779Z,15.17
2019-02-14T05:31:34.109Z,16.13
2019-02-14T05:32:08.731Z,18.20
2019-02-14T05:32:43.082Z,18.80
2019-02-14T05:33:17.437Z,16.57
2019-02-14T05:33:51.767Z,15.10
2019-02-14T05:34:26.151Z,12.90
2019-02-14T05:35:00.545Z,17.13
2019-02-14T05:35:34.815Z,18.70
2019-02-14T05:36:09.401Z,12.70
2019-02-14T05:36:43.768Z,17.73
2019-02-14T05:37:18.147Z,15.40
2019-02-14T05:37:52.509Z,13.63
2019-02-14T05:38:26.841Z,15.53
2019-02-14T05:39:01.171Z,11.93
2019-02-14T05:39:35.587Z,12.33
2019-02-14T05:40:10.115Z,15.20
2019-02-14T05:40:44.814Z,16.30
2019-02-14T05:41:19.493Z,15.97
2019-02-14T05:41:54.430Z,16.03
2019-02-14T05:42:29.026Z,15.73
2019-02-14T05:43:03.371Z,18.47
2019-02-14T05:43:37.701Z,15.73
2019-02-14T05:44:12.313Z,15.93
2019-02-14T05:44:46.662Z,11.97
2019-02-14T05:45:20.985Z,15.87
2019-02-14T05:45:55.353Z,14.37
2019-02-14T05:46:29.693Z,14.43
2019-02-14T05:47:04.027Z,15.07
2019-02-14T05:47:38.649Z,15.30
2019-02-14T05:48:13.010Z,15.20
2019-02-14T05:48:47.631Z,23.90
2019-02-14T05:49:22.225Z,14.10
2019-02-14T05:49:56.808Z,17.57
2019-02-14T05:50:31.398Z,15.40
2019-02-14T05:51:05.719Z,13.57
2019-02-14T05:51:40.320Z,18.13
2019-02-14T05:52:14.700Z,14.97
2019-02-14T05:52:49.025Z,18.33
2019-02-14T05:53:23.611Z,19.37
2019-02-14T05:53:57.948Z,18.33
2019-02-14T05:54:32.282Z,15.13
2019-02-14T05:55:07.892Z,17.83
2019-02-14T05:55:42.418Z,19.37
2019-02-14T05:56:16.762Z,25.70
2019-02-14T05:56:51.095Z,17.03
2019-02-14T05:57:27.289Z,12.77
2019-02-14T05:58:01.768Z,13.87
2019-02-14T05:58:36.109Z,16.30
2019-02-14T05:59:10.470Z,15.57
2019-02-14T05:59:44.812Z,17.80
2019-02-14T06:00:19.752Z,16.27
2019-02-14T06:00:54.911Z,13.33
2019-02-14T06:01:29.251Z,17.70
2019-02-14T06:02:03.679Z,15.27
2019-02-14T06:02:38.217Z,18.23
2019-02-14T06:03:12.840Z,16.50
2019-02-14T06:03:47.246Z,17.00
2019-02-14T06:04:21.870Z,15.13
2019-02-14T06:04:56.450Z,22.03
2019-02-14T06:05:30.824Z,20.83
2019-02-14T06:06:05.192Z,20.73
2019-02-14T06:06:39.801Z,22.17
2019-02-14T06:07:14.179Z,19.03
2019-02-14T06:07:48.570Z,18.97
2019-02-14T06:08:23.204Z,16.73
2019-02-14T06:08:57.545Z,20.63
2019-02-14T06:09:31.880Z,19.47
2019-02-14T06:10:07.037Z,15.93
2019-02-14T06:10:41.621Z,18.30
2019-02-14T06:11:16.069Z,16.87
2019-02-14T06:11:50.703Z,19.50
2019-02-14T06:12:25.322Z,16.00
2019-02-14T06:12:59.946Z,16.23
2019-02-14T06:13:34.293Z,16.67
2019-02-14T06:14:08.909Z,16.20
2019-02-14T06:14:43.313Z,18.07
2019-02-14T06:15:17.943Z,18.57
2019-02-14T06:15:52.510Z,18.57
2019-02-14T06:16:27.165Z,16.10
2019-02-14T06:17:01.524Z,15.87
2019-02-14T06:17:36.196Z,16.17
2019-02-14T06:18:10.549Z,14.70
2019-02-14T06:18:45.224Z,15.03
2019-02-14T06:19:19.936Z,15.47
2019-02-14T06:19:54.277Z,13.50
2019-02-14T06:20:28.898Z,14.53
2019-02-14T06:21:03.239Z,16.53
2019-02-14T06:21:37.850Z,16.87
2019-02-14T06:22:12.467Z,14.40
2019-02-14T06:22:47.150Z,13.90
2019-02-14T06:23:21.490Z,17.60
2019-02-14T06:23:56.123Z,14.73
2019-02-14T06:24:30.738Z,13.40
2019-02-14T06:25:05.295Z,18.30
2019-02-14T06:25:39.871Z,20.40
2019-02-14T06:26:14.272Z,15.47
2019-02-14T06:26:48.971Z,16.13
2019-02-14T06:27:23.366Z,13.73
2019-02-14T06:27:57.714Z,17.20
2019-02-14T06:28:32.047Z,15.90
2019-02-14T06:29:06.379Z,18.70
2019-02-14T06:29:41.031Z,20.20
2019-02-14T06:30:15.616Z,14.70
2019-02-14T06:30:50.113Z,16.27
2019-02-14T06:31:24.756Z,14.77
2019-02-14T06:31:59.609Z,16.53
2019-02-14T06:32:33.965Z,15.03
2019-02-14T06:33:08.387Z,16.43
2019-02-14T06:33:44.343Z,13.97
2019-02-14T06:34:19.087Z,17.33
2019-02-14T06:34:53.421Z,13.60
2019-02-14T06:35:28.032Z,15.93
2019-02-14T06:36:02.462Z,21.13
2019-02-14T06:36:37.040Z,19.07
2019-02-14T06:37:11.374Z,16.77
2019-02-14T06:37:46.243Z,15.17
2019-02-14T06:38:20.976Z,18.90
2019-02-14T06:38:55.302Z,19.93
2019-02-14T06:39:29.702Z,19.33
2019-02-14T06:40:04.461Z,21.97
2019-02-14T06:40:39.080Z,15.97
2019-02-14T06:41:13.459Z,14.60
2019-02-14T06:41:47.817Z,16.63
2019-02-14T06:42:22.444Z,16.47
2019-02-14T06:42:56.843Z,16.50
2019-02-14T06:43:31.178Z,13.77
2019-02-14T06:44:05.787Z,18.27
2019-02-14T06:44:40.688Z,16.20
2019-02-14T06:45:15.363Z,17.40
2019-02-14T06:45:50.020Z,16.13
2019-02-14T06:46:24.392Z,18.70
2019-02-14T06:46:58.994Z,21.20
2019-02-14T06:47:33.335Z,16.87
2019-02-14T06:48:07.934Z,15.33
2019-02-14T06:48:42.391Z,17.73
2019-02-14T06:49:16.765Z,16.03
2019-02-14T06:49:51.157Z,20.13
2019-02-14T06:50:25.494Z,16.47
2019-02-14T06:50:59.832Z,16.70
2019-02-14T06:51:34.438Z,23.83
2019-02-14T06:52:08.788Z,21.53
2019-02-14T06:52:43.138Z,18.20
2019-02-14T06:53:17.574Z,19.20
2019-02-14T06:53:51.908Z,22.07
2019-02-14T06:54:26.225Z,18.40
2019-02-14T06:55:00.562Z,15.47
2019-02-14T06:55:34.911Z,21.17
2019-02-14T06:56:09.494Z,19.57
2019-02-14T06:56:44.014Z,19.33
2019-02-14T06:57:18.587Z,17.80
2019-02-14T06:57:53.464Z,18.77
2019-02-14T06:58:28.092Z,20.53
2019-02-14T06:59:02.457Z,21.03
2019-02-14T06:59:36.793Z,26.13
2019-02-14T07:00:13.343Z,21.53
2019-02-14T07:00:47.812Z,21.07
2019-02-14T07:01:22.405Z,17.73
2019-02-14T07:01:57.010Z,15.03
2019-02-14T07:02:31.647Z,24.93
2019-02-14T07:03:06.019Z,24.10
2019-02-14T07:03:40.391Z,19.27
2019-02-14T07:04:14.908Z,28.70
2019-02-14T07:04:49.546Z,28.23
2019-02-14T07:05:23.920Z,23.30
2019-02-14T07:05:58.642Z,26.10
2019-02-14T07:06:33.322Z,21.23
2019-02-14T07:07:07.955Z,23.60
2019-02-14T07:07:42.319Z,24.87
2019-02-14T07:08:16.852Z,26.00
2019-02-14T07:08:51.602Z,28.13
2019-02-14T07:09:25.966Z,23.73
2019-02-14T07:10:00.324Z,23.87
2019-02-14T07:10:34.919Z,28.87
2019-02-14T07:11:09.520Z,26.33
2019-02-14T07:11:43.931Z,30.40
2019-02-14T07:12:18.594Z,22.50
2019-02-14T07:12:53.050Z,29.93
2019-02-14T07:13:27.749Z,28.83
2019-02-14T07:14:02.539Z,30.90
2019-02-14T07:14:37.895Z,28.20
2019-02-14T07:15:12.467Z,25.87
2019-02-14T07:15:47.153Z,23.20
2019-02-14T07:16:21.847Z,28.23
2019-02-14T07:16:56.473Z,25.63
2019-02-14T07:17:31.118Z,22.13
2019-02-14T07:18:05.498Z,19.57
2019-02-14T07:18:39.842Z,28.37
2019-02-14T07:19:14.233Z,25.63
2019-02-14T07:19:48.932Z,19.97
2019-02-14T07:20:23.310Z,21.43
2019-02-14T07:20:57.807Z,19.70
2019-02-14T07:21:32.428Z,21.87
2019-02-14T07:22:06.768Z,21.07
2019-02-14T07:22:41.161Z,20.37
2019-02-14T07:23:15.834Z,18.07
2019-02-14T07:23:50.234Z,21.47
2019-02-14T07:24:24.587Z,21.23
2019-02-14T07:24:59.231Z,19.63
2019-02-14T07:25:33.558Z,18.90
2019-02-14T07:26:08.138Z,22.63